Time;durP1;ratioP1;P1;durP2;ratioP2;P2;SDS_P1;SDS_P2;PMS_P1;PMS_P2;Temp;Humidity;BMP_temperature;BMP_pressure;BME280_temperature;BME280_humidity;BME280_pressure;Samples;Min_cycle;Max_cycle;Signal;HPM_P1;HPM_P2
2022/01/03 00:01:12;;;;;;;17.15;3.65;;;;;;;9.51;83.97;101078.97;4972409;28;20031;-76
2022/01/03 00:03:37;;;;;;;22.65;4.78;;;;;;;9.49;83.86;101102.66;4976317;28;20350;-76
2022/01/03 00:06:04;;;;;;;17.52;3.03;;;;;;;9.47;84.52;101088.31;4976079;28;20073;-75
2022/01/03 00:08:30;;;;;;;15.98;3.28;;;;;;;9.45;83.95;101084.81;4982140;28;20026;-75
2022/01/03 00:10:56;;;;;;;19.88;3.25;;;;;;;9.45;84.40;101095.69;4977455;28;20031;-74
2022/01/03 00:13:22;;;;;;;13.93;2.67;;;;;;;9.44;84.11;101086.66;4974309;28;20100;-76
2022/01/03 00:15:48;;;;;;;19.25;3.22;;;;;;;9.44;83.92;101097.53;4979846;28;20390;-73
2022/01/03 00:18:13;;;;;;;14.52;2.80;;;;;;;9.42;84.15;101087.75;4984691;28;20057;-76
2022/01/03 00:20:40;;;;;;;16.23;3.15;;;;;;;9.40;84.11;101098.69;4978160;28;20433;-75
2022/01/03 00:23:09;;;;;;;19.48;3.50;;;;;;;9.35;84.30;101098.09;4985725;28;20089;-76
2022/01/03 00:25:41;;;;;;;15.70;3.30;;;;;;;9.31;83.92;101093.84;4984178;28;20089;-77
2022/01/03 00:28:25;;;;;;;22.48;3.85;;;;;;;9.36;84.41;101099.84;4986900;28;20019;-79
2022/01/03 00:30:55;;;;;;;15.77;3.03;;;;;;;9.35;84.02;101106.25;4973145;28;20026;-73
2022/01/03 00:33:22;;;;;;;16.02;3.10;;;;;;;9.33;84.19;101105.50;4974382;28;20130;-76
2022/01/03 00:35:53;;;;;;;17.85;3.33;;;;;;;9.35;84.28;101098.09;4986211;28;20026;-75
2022/01/03 00:38:20;;;;;;;13.48;3.00;;;;;;;9.39;83.88;101096.06;4985130;28;20022;-74
2022/01/03 00:40:46;;;;;;;14.07;3.33;;;;;;;9.40;83.50;101097.81;4979444;28;20137;-76
2022/01/03 00:43:11;;;;;;;14.55;3.25;;;;;;;9.43;83.53;101103.94;4970992;28;20223;-76
2022/01/03 00:45:36;;;;;;;23.40;4.00;;;;;;;9.42;83.49;101106.75;4974015;28;20030;-76
2022/01/03 00:48:10;;;;;;;18.25;3.60;;;;;;;9.48;82.80;101090.06;4986023;28;20112;-76
2022/01/03 00:50:36;;;;;;;24.15;3.85;;;;;;;9.48;83.38;101098.22;4980924;28;20080;-76
2022/01/03 00:53:01;;;;;;;24.73;5.53;;;;;;;9.46;82.29;101094.69;4990297;28;20115;-81
2022/01/03 00:55:26;;;;;;;15.73;3.67;;;;;;;9.53;82.55;101100.63;4986376;28;20605;-75
2022/01/03 00:58:02;;;;;;;19.63;3.58;;;;;;;9.54;82.80;101107.78;4990392;28;20037;-75
2022/01/03 01:00:31;;;;;;;18.70;3.50;;;;;;;9.53;82.29;101104.22;4981122;28;20034;-73
2022/01/03 01:03:04;;;;;;;17.85;3.47;;;;;;;9.55;82.11;101104.97;4986908;28;20038;-75
2022/01/03 01:05:30;;;;;;;18.67;4.25;;;;;;;9.55;82.46;101104.09;4983170;28;20070;-75
2022/01/03 01:07:56;;;;;;;15.35;4.25;;;;;;;9.57;82.27;101104.91;4983580;28;20033;-79
2022/01/03 01:10:27;;;;;;;18.52;3.67;;;;;;;9.56;82.21;101101.31;4981177;28;20117;-78
2022/01/03 01:12:54;;;;;;;16.52;4.00;;;;;;;9.56;82.30;101101.31;4984065;28;20066;-74
2022/01/03 01:15:20;;;;;;;25.52;4.28;;;;;;;9.57;82.39;101100.34;4988575;28;20030;-76
2022/01/03 01:17:45;;;;;;;15.32;3.65;;;;;;;9.55;82.22;101096.81;4985104;28;20537;-74
2022/01/03 01:20:15;;;;;;;19.13;3.72;;;;;;;9.56;82.33;101108.56;4984124;28;20042;-74
2022/01/03 01:22:42;;;;;;;20.40;4.30;;;;;;;9.54;82.83;101114.09;4972935;28;20042;-76
2022/01/03 01:27:46;;;;;;;21.00;3.92;;;;;;;9.50;82.14;101108.97;4990565;28;20092;-75
2022/01/03 01:30:12;;;;;;;18.35;4.18;;;;;;;9.50;82.52;101128.84;4981323;28;20058;-73
2022/01/03 01:32:41;;;;;;;16.52;3.72;;;;;;;9.45;82.09;101123.69;4977851;28;20081;-75
2022/01/03 01:35:07;;;;;;;25.88;4.78;;;;;;;9.44;82.16;101130.09;4991150;28;20030;-73
2022/01/03 01:37:33;;;;;;;22.55;4.72;;;;;;;9.45;82.32;101145.41;4984859;28;20235;-79
2022/01/03 01:39:58;;;;;;;19.33;4.65;;;;;;;9.42;82.27;101134.78;4986929;28;20089;-77
2022/01/03 01:42:24;;;;;;;16.67;4.03;;;;;;;9.47;81.85;101148.06;4985214;28;20058;-77
2022/01/03 01:44:51;;;;;;;19.42;3.72;;;;;;;9.45;82.25;101131.84;4988416;28;20411;-76
2022/01/03 01:47:18;;;;;;;15.73;4.03;;;;;;;9.44;82.46;101135.53;4975198;28;20030;-76
2022/01/03 01:49:45;;;;;;;26.20;4.82;;;;;;;9.44;82.10;101135.53;4988489;28;20018;-76
2022/01/03 01:52:17;;;;;;;20.52;4.28;;;;;;;9.47;82.47;101139.06;4978574;28;20039;-76
2022/01/03 01:54:50;;;;;;;16.13;3.33;;;;;;;9.41;82.61;101127.56;4976932;28;20038;-74
2022/01/03 01:57:20;;;;;;;21.55;3.50;;;;;;;9.38;82.35;101124.22;4986016;28;20026;-74
2022/01/03 02:00:13;;;;;;;22.08;3.58;;;;;;;9.33;82.64;101131.78;4987537;28;20482;-78
2022/01/03 02:03:06;;;;;;;15.13;3.80;;;;;;;9.26;82.70;101128.53;4979965;28;20076;-74
2022/01/03 02:05:41;;;;;;;22.60;3.90;;;;;;;9.20;82.79;101135.22;4966556;28;20081;-79
2022/01/03 02:08:25;;;;;;;17.70;3.97;;;;;;;9.18;83.00;101137.16;5000415;28;20030;-79
2022/01/03 02:11:31;;;;;;;20.95;3.08;;;;;;;9.16;83.19;101128.25;4987412;28;20026;-74
2022/01/03 02:13:57;;;;;;;14.50;4.10;;;;;;;9.08;83.13;101138.69;4984272;28;20062;-78
2022/01/03 02:16:22;;;;;;;20.23;4.10;;;;;;;9.06;83.57;101142.50;4986465;28;20037;-78
2022/01/03 02:18:47;;;;;;;19.20;3.15;;;;;;;9.02;83.47;101132.78;4981810;28;20073;-76
2022/01/03 02:21:14;;;;;;;21.35;3.40;;;;;;;8.98;84.03;101131.22;4980376;28;20045;-75
2022/01/03 02:23:40;;;;;;;25.58;6.35;;;;;;;8.98;84.17;101134.81;4973441;28;20018;-76
2022/01/03 02:26:05;;;;;;;22.20;3.17;;;;;;;8.93;84.19;101132.38;4980578;28;20040;-79
2022/01/03 02:28:30;;;;;;;18.95;3.05;;;;;;;8.93;84.04;101135.09;4986294;28;20394;-75
2022/01/03 02:30:55;;;;;;;33.70;5.10;;;;;;;8.90;84.42;101143.41;4976538;28;20027;-75
2022/01/03 02:33:21;;;;;;;16.15;2.92;;;;;;;8.84;84.25;101137.50;4984751;28;20022;-73
2022/01/03 02:35:47;;;;;;;17.23;4.82;;;;;;;8.81;84.18;101137.66;4987799;28;20029;-75
2022/01/03 02:38:13;;;;;;;17.50;3.95;;;;;;;8.82;84.39;101144.88;4987676;28;20034;-76
2022/01/03 02:40:39;;;;;;;21.33;2.97;;;;;;;8.79;84.95;101137.75;4985449;28;20378;-75
2022/01/03 02:43:04;;;;;;;21.40;4.15;;;;;;;8.81;84.54;101141.28;4982712;28;20022;-77
2022/01/03 02:45:30;;;;;;;18.20;3.13;;;;;;;8.82;84.75;101148.44;4984115;28;20045;-77
2022/01/03 02:48:02;;;;;;;16.65;2.97;;;;;;;8.82;85.04;101142.16;4984874;28;20026;-77
2022/01/03 02:50:32;;;;;;;19.38;3.92;;;;;;;8.85;84.42;101133.81;4986780;28;20038;-73
2022/01/03 02:52:58;;;;;;;21.88;3.47;;;;;;;8.90;84.59;101127.13;4984957;28;20391;-76
2022/01/03 02:55:24;;;;;;;26.73;3.42;;;;;;;8.91;84.60;101131.59;4981193;28;20038;-76
2022/01/03 02:57:52;;;;;;;15.77;3.83;;;;;;;8.92;84.34;101129.75;4982155;28;20026;-80
2022/01/03 03:00:29;;;;;;;24.85;4.03;;;;;;;8.91;84.57;101142.47;4982388;28;20030;-78
2022/01/03 03:02:55;;;;;;;12.02;3.28;;;;;;;8.91;84.58;101139.75;4975811;28;20034;-76
2022/01/03 03:05:21;;;;;;;25.40;4.63;;;;;;;8.89;84.29;101133.53;4976485;28;20391;-76
2022/01/03 03:07:48;;;;;;;15.48;3.88;;;;;;;8.87;84.66;101148.16;4985057;28;20065;-74
2022/01/03 03:10:15;;;;;;;21.25;4.72;;;;;;;8.84;84.42;101140.19;4977311;28;20034;-76
2022/01/03 03:12:41;;;;;;;23.10;3.92;;;;;;;8.87;84.35;101146.31;4980446;28;20509;-80
2022/01/03 03:15:09;;;;;;;19.73;3.47;;;;;;;8.89;84.52;101141.66;4986136;28;20030;-76
2022/01/03 03:17:35;;;;;;;24.70;4.07;;;;;;;8.83;85.00;101131.19;4978911;28;20034;-77
2022/01/03 03:20:06;;;;;;;18.38;4.88;;;;;;;8.89;84.73;101138.94;4983230;28;20058;-78
2022/01/03 03:22:32;;;;;;;17.02;3.78;;;;;;;8.87;84.72;101143.63;4986035;28;20038;-76
2022/01/03 03:25:04;;;;;;;28.63;4.57;;;;;;;8.87;84.90;101140.91;4980676;28;20062;-78
2022/01/03 03:27:29;;;;;;;21.00;4.38;;;;;;;8.85;84.76;101137.38;4981078;28;20040;-75
2022/01/03 03:29:56;;;;;;;18.60;4.53;;;;;;;8.85;84.90;101140.09;4979807;28;20526;-74
2022/01/03 03:32:21;;;;;;;19.02;3.35;;;;;;;8.86;85.04;101150.00;4985466;28;20032;-76
2022/01/03 03:34:48;;;;;;;24.80;4.65;;;;;;;8.86;85.28;101138.25;4986250;28;20029;-76
2022/01/03 03:37:15;;;;;;;21.65;4.45;;;;;;;8.89;85.17;101152.53;4972451;28;20035;-76
2022/01/03 03:39:41;;;;;;;15.00;4.05;;;;;;;8.90;85.13;101146.13;4983612;28;20038;-78
2022/01/03 03:42:08;;;;;;;17.15;4.25;;;;;;;8.92;85.24;101154.19;4984929;28;20371;-76
2022/01/03 03:44:35;;;;;;;15.95;3.58;;;;;;;8.96;84.95;101138.59;4980813;28;20090;-75
2022/01/03 03:47:00;;;;;;;30.00;5.18;;;;;;;9.01;84.77;101150.03;4982876;28;20030;-78
2022/01/03 03:49:26;;;;;;;25.27;4.00;;;;;;;9.03;84.84;101139.94;4987457;28;20033;-73
2022/01/03 03:51:51;;;;;;;23.55;4.05;;;;;;;9.01;84.96;101139.19;4982128;28;20034;-76
2022/01/03 03:54:17;;;;;;;15.82;3.47;;;;;;;9.03;85.13;101140.81;4981751;28;20022;-76
2022/01/03 03:56:43;;;;;;;19.77;5.10;;;;;;;9.00;84.69;101129.28;4973349;28;20430;-76
2022/01/03 03:59:09;;;;;;;13.38;3.60;;;;;;;8.97;84.87;101130.34;4987042;28;20375;-76
2022/01/03 04:01:34;;;;;;;16.48;3.53;;;;;;;8.94;85.06;101141.38;4981679;28;20492;-76
2022/01/03 04:03:59;;;;;;;21.88;3.70;;;;;;;8.90;85.05;101137.09;4988288;28;20034;-76
2022/01/03 04:06:25;;;;;;;21.63;4.70;;;;;;;8.86;85.66;101127.41;4983649;28;20037;-76
2022/01/03 04:08:50;;;;;;;21.15;4.15;;;;;;;8.89;85.52;101136.25;4983719;28;22119;-79
2022/01/03 04:11:15;;;;;;;24.10;4.03;;;;;;;8.88;85.55;101137.22;4979803;28;20145;-76
2022/01/03 04:13:41;;;;;;;19.23;4.28;;;;;;;8.92;85.17;101132.47;4977778;28;20038;-76
2022/01/03 04:16:07;;;;;;;20.98;3.50;;;;;;;8.94;85.39;101130.53;4984243;28;20041;-77
2022/01/03 04:18:33;;;;;;;15.05;3.00;;;;;;;8.94;85.25;101119.69;4985033;28;20022;-76
2022/01/03 04:20:59;;;;;;;24.30;4.07;;;;;;;8.98;84.76;101126.66;4981388;28;20487;-76
2022/01/03 04:23:25;;;;;;;14.52;4.50;;;;;;;8.99;85.07;101127.53;4983963;28;20064;-80
2022/01/03 04:25:53;;;;;;;24.85;4.10;;;;;;;8.96;85.27;101114.19;4979704;28;20402;-75
2022/01/03 04:28:19;;;;;;;23.02;3.78;;;;;;;8.99;85.39;101119.41;4980504;28;20038;-78
2022/01/03 04:30:44;;;;;;;18.90;4.10;;;;;;;8.98;84.97;101112.22;4982258;28;20018;-76
2022/01/03 04:33:10;;;;;;;20.05;4.32;;;;;;;9.03;85.15;101107.38;4979270;28;20121;-73
2022/01/03 04:35:35;;;;;;;16.90;3.85;;;;;;;9.04;85.09;101104.56;4986107;28;20030;-77
2022/01/03 04:38:00;;;;;;;22.30;4.45;;;;;;;9.03;84.91;101110.97;4981533;28;20037;-76
2022/01/03 04:40:26;;;;;;;21.52;4.35;;;;;;;9.04;84.76;101106.41;4983184;28;20034;-75
2022/01/03 04:42:51;;;;;;;25.25;3.75;;;;;;;9.04;84.61;101112.72;4976626;28;20056;-79
2022/01/03 04:45:17;;;;;;;26.38;3.97;;;;;;;9.06;84.59;101120.78;4984592;28;20120;-77
2022/01/03 04:47:43;;;;;;;20.38;4.45;;;;;;;9.06;84.46;101109.94;4976928;28;20037;-76
2022/01/03 04:50:09;;;;;;;23.98;3.88;;;;;;;9.08;84.94;101110.69;4986875;28;20411;-77
2022/01/03 04:52:34;;;;;;;16.48;3.78;;;;;;;9.10;84.94;101111.47;4981180;28;20026;-76
2022/01/03 04:55:01;;;;;;;18.55;3.42;;;;;;;9.07;84.92;101109.81;4987521;28;20021;-74
2022/01/03 04:57:26;;;;;;;20.15;3.53;;;;;;;9.06;84.89;101102.66;4972721;28;20177;-76
2022/01/03 04:59:51;;;;;;;18.75;4.25;;;;;;;9.02;85.30;101094.78;4986035;28;20158;-77
2022/01/03 05:02:17;;;;;;;15.57;3.15;;;;;;;9.04;85.05;101103.69;4972744;28;20503;-76
2022/01/03 05:04:42;;;;;;;25.85;4.53;;;;;;;9.05;84.88;101100.91;4983410;28;20019;-76
2022/01/03 05:07:07;;;;;;;18.80;3.40;;;;;;;9.04;84.91;101100.97;4975715;28;20037;-76
2022/01/03 05:09:33;;;;;;;17.65;3.90;;;;;;;9.03;84.61;101097.41;4978987;28;20487;-76
2022/01/03 05:11:58;;;;;;;25.67;4.32;;;;;;;9.06;84.97;101105.38;4986387;28;20383;-79
2022/01/03 05:14:23;;;;;;;17.65;4.07;;;;;;;9.11;84.99;101097.81;4985885;28;20054;-74
2022/01/03 05:16:49;;;;;;;28.45;4.65;;;;;;;9.16;84.64;101094.81;4984919;28;20038;-76
2022/01/03 05:19:14;;;;;;;21.92;3.80;;;;;;;9.17;84.43;101094.69;4985352;28;20030;-79
2022/01/03 05:21:40;;;;;;;18.70;3.92;;;;;;;9.10;84.75;101076.19;4974030;28;20479;-76
2022/01/03 05:24:05;;;;;;;28.38;3.60;;;;;;;9.16;84.34;101084.81;4987411;28;20073;-78
2022/01/03 05:26:30;;;;;;;18.70;3.72;;;;;;;9.15;84.73;101084.94;4974760;28;20125;-76
2022/01/03 05:28:56;;;;;;;25.42;3.63;;;;;;;9.17;84.47;101085.69;4986144;28;20034;-76
2022/01/03 05:31:21;;;;;;;22.83;4.03;;;;;;;9.12;84.61;101077.84;4973983;28;20471;-74
2022/01/03 05:33:47;;;;;;;26.27;3.75;;;;;;;9.11;84.47;101073.38;4985413;28;20130;-75
2022/01/03 05:36:12;;;;;;;21.50;3.40;;;;;;;9.09;84.75;101082.56;4977710;28;20026;-76
2022/01/03 05:38:37;;;;;;;24.42;3.22;;;;;;;9.06;85.08;101074.66;4976520;28;20026;-76
2022/01/03 05:41:03;;;;;;;17.77;3.60;;;;;;;9.04;84.99;101077.44;4985812;28;20109;-74
2022/01/03 05:43:28;;;;;;;20.83;3.33;;;;;;;9.04;85.00;101071.13;4980047;28;20383;-76
2022/01/03 05:45:53;;;;;;;15.43;3.80;;;;;;;9.04;84.51;101082.84;4981596;28;20662;-76
2022/01/03 05:48:18;;;;;;;20.63;3.17;;;;;;;9.04;85.01;101076.56;4977790;28;20518;-78
2022/01/03 05:50:44;;;;;;;20.48;3.35;;;;;;;8.97;84.78;101077.94;4987429;28;20128;-76
2022/01/03 05:53:09;;;;;;;18.67;3.45;;;;;;;8.98;85.24;101072.41;4979974;28;20533;-76
2022/01/03 05:55:34;;;;;;;18.98;4.03;;;;;;;8.98;84.93;101069.69;4987176;28;20113;-75
2022/01/03 05:58:00;;;;;;;21.00;3.15;;;;;;;9.04;84.76;101077.44;4990613;28;20038;-75
2022/01/03 06:00:26;;;;;;;19.52;3.63;;;;;;;9.06;84.43;101063.78;4987507;28;20368;-76
2022/01/03 06:02:55;;;;;;;16.05;2.45;;;;;;;9.09;84.70;101069.00;4976637;28;20526;-76
2022/01/03 06:08:03;;;;;;;24.13;3.40;;;;;;;9.09;84.79;101059.03;4978044;28;20042;-81
2022/01/03 06:10:28;;;;;;;19.10;2.72;;;;;;;9.07;84.36;101068.25;4980771;28;20399;-78
2022/01/03 06:12:53;;;;;;;26.35;3.08;;;;;;;9.05;84.81;101062.06;4990092;28;20053;-75
2022/01/03 06:15:23;;;;;;;20.65;3.47;;;;;;;9.07;84.66;101060.09;4978066;28;20026;-73
2022/01/03 06:17:49;;;;;;;19.52;2.95;;;;;;;9.10;84.82;101059.91;4975931;28;20037;-79
2022/01/03 06:20:15;;;;;;;15.63;2.88;;;;;;;9.07;84.88;101058.25;4989562;28;20042;-76
2022/01/03 06:22:41;;;;;;;14.15;3.15;;;;;;;9.03;84.74;101061.25;4988355;28;20026;-73
2022/01/03 06:25:08;;;;;;;20.70;2.97;;;;;;;9.00;85.18;101058.72;4989238;28;20061;-76
2022/01/03 06:27:34;;;;;;;19.40;3.35;;;;;;;9.00;84.97;101061.44;4984519;28;20180;-74
2022/01/03 06:29:59;;;;;;;24.25;5.40;;;;;;;8.98;84.90;101066.09;4988986;28;20078;-78
2022/01/03 06:32:24;;;;;;;26.13;3.97;;;;;;;8.92;85.31;101065.50;4986011;28;20027;-80
2022/01/03 06:34:52;;;;;;;17.88;2.45;;;;;;;8.89;85.08;101056.69;4988787;28;20524;-77
2022/01/03 06:37:18;;;;;;;13.90;3.15;;;;;;;8.89;85.19;101054.84;4987201;28;20030;-75
2022/01/03 06:39:43;;;;;;;18.48;2.92;;;;;;;8.84;85.67;101054.25;4983982;28;20470;-74
2022/01/03 06:42:08;;;;;;;20.77;3.00;;;;;;;8.82;85.86;101061.63;4984557;28;20036;-74
2022/01/03 06:44:33;;;;;;;24.70;3.47;;;;;;;8.80;86.03;101054.53;4980219;28;20479;-75
2022/01/03 06:46:59;;;;;;;17.83;2.85;;;;;;;8.81;86.71;101068.03;4985625;28;20034;-74
2022/01/03 06:49:24;;;;;;;14.18;2.78;;;;;;;8.81;86.70;101054.47;4988083;28;20042;-79
2022/01/03 06:51:49;;;;;;;14.15;2.50;;;;;;;8.75;86.72;101046.69;4987928;28;20027;-73
2022/01/03 06:54:15;;;;;;;15.77;2.85;;;;;;;8.72;86.92;101048.72;4988705;28;20037;-78
2022/01/03 06:56:41;;;;;;;10.95;2.92;;;;;;;8.66;87.48;101049.97;4979586;28;20484;-75
2022/01/03 06:59:07;;;;;;;20.70;3.22;;;;;;;8.64;87.71;101054.63;4984261;28;20030;-74
2022/01/03 07:01:32;;;;;;;12.43;2.58;;;;;;;8.62;88.04;101049.28;4978925;28;20503;-76
2022/01/03 07:03:57;;;;;;;17.95;3.15;;;;;;;8.60;88.15;101051.22;4983776;28;20022;-74
2022/01/03 07:06:23;;;;;;;13.90;3.45;;;;;;;8.62;88.66;101051.13;4981235;28;20045;-74
2022/01/03 07:08:48;;;;;;;17.48;3.25;;;;;;;8.63;88.47;101045.63;4986591;28;20431;-75
2022/01/03 07:11:13;;;;;;;20.55;3.13;;;;;;;8.63;88.67;101042.03;4986685;28;20080;-74
2022/01/03 07:13:46;;;;;;;18.38;3.25;;;;;;;8.63;88.56;101048.34;4984518;28;20058;-79
2022/01/03 07:18:56;;;;;;;13.38;3.15;;;;;;;8.62;88.76;101046.56;4986298;28;20036;-76
2022/01/03 07:21:21;;;;;;;15.57;3.33;;;;;;;8.65;88.92;101038.25;4987036;28;20038;-74
2022/01/03 07:23:47;;;;;;;13.60;2.65;;;;;;;8.65;89.03;101040.09;4976058;28;20031;-76
2022/01/03 07:26:12;;;;;;;19.33;3.33;;;;;;;8.60;89.04;101037.66;4987606;28;20118;-76
2022/01/03 07:28:37;;;;;;;20.35;3.40;;;;;;;8.60;88.82;101037.66;4980178;28;20030;-78
2022/01/03 07:31:03;;;;;;;13.40;2.67;;;;;;;8.58;89.08;101038.69;4984931;28;20022;-76
2022/01/03 07:33:28;;;;;;;15.13;3.20;;;;;;;8.57;89.10;101043.25;4977063;28;20046;-79
2022/01/03 07:35:53;;;;;;;17.60;2.92;;;;;;;8.51;88.64;101038.22;4987474;28;20423;-75
2022/01/03 07:38:19;;;;;;;15.93;3.00;;;;;;;8.50;88.83;101041.91;4983454;28;20103;-80
2022/01/03 07:40:44;;;;;;;16.40;2.63;;;;;;;8.48;88.92;101035.69;4978329;28;20030;-76
2022/01/03 07:43:10;;;;;;;23.58;2.65;;;;;;;8.46;88.81;101036.75;4977820;28;20030;-73
2022/01/03 07:45:35;;;;;;;16.95;2.42;;;;;;;8.45;88.36;101044.03;4986224;28;20022;-76
2022/01/03 07:48:00;;;;;;;11.05;2.80;;;;;;;8.42;88.99;101046.91;4982623;28;20121;-79
2022/01/03 07:50:26;;;;;;;17.08;2.75;;;;;;;8.43;88.95;101048.66;4981613;28;20031;-75
2022/01/03 07:52:51;;;;;;;17.05;2.60;;;;;;;8.46;88.84;101055.75;4985953;28;20394;-76
2022/01/03 07:55:17;;;;;;;17.42;2.80;;;;;;;8.48;89.04;101073.63;4984157;28;20037;-73
2022/01/03 07:57:43;;;;;;;20.63;2.80;;;;;;;8.51;88.65;101061.75;4974922;28;20097;-76
2022/01/03 08:00:11;;;;;;;13.35;2.55;;;;;;;8.54;88.84;101076.00;4975625;28;20036;-76
2022/01/03 08:02:38;;;;;;;13.70;2.72;;;;;;;8.59;88.81;101075.72;4976465;28;20018;-76
2022/01/03 08:05:05;;;;;;;16.05;3.15;;;;;;;8.63;88.07;101064.59;4973070;28;20046;-76
2022/01/03 08:07:30;;;;;;;13.55;2.28;;;;;;;8.68;87.94;101059.75;4976314;28;20482;-76
2022/01/03 08:09:55;;;;;;;14.40;2.65;;;;;;;8.73;87.89;101056.78;4977676;28;20075;-76
2022/01/03 08:12:21;;;;;;;16.58;2.92;;;;;;;8.75;87.81;101052.13;4968976;28;20022;-73
2022/01/03 08:14:46;;;;;;;14.77;2.85;;;;;;;8.76;87.91;101061.13;4984595;28;20041;-76
2022/01/03 08:17:11;;;;;;;17.45;3.47;;;;;;;8.76;87.60;101064.69;4976934;28;20032;-74
2022/01/03 08:19:36;;;;;;;19.73;4.10;;;;;;;8.75;87.82;101053.97;4981272;28;20050;-75
2022/01/03 08:22:02;;;;;;;18.60;3.10;;;;;;;8.75;87.71;101054.81;4971933;28;20118;-76
2022/01/03 08:24:27;;;;;;;16.48;3.03;;;;;;;8.78;87.35;101051.06;4981637;28;20054;-76
2022/01/03 08:26:54;;;;;;;16.75;3.38;;;;;;;8.82;86.88;101055.34;4979522;28;20026;-77
2022/01/03 08:29:19;;;;;;;15.80;4.15;;;;;;;8.84;87.28;101056.97;4975339;28;20034;-76
2022/01/03 08:31:45;;;;;;;23.08;3.97;;;;;;;8.86;87.51;101057.75;4966852;28;20387;-73
2022/01/03 08:34:10;;;;;;;15.38;3.08;;;;;;;8.89;86.95;101060.28;4968103;28;20105;-77
2022/01/03 08:36:35;;;;;;;15.77;4.22;;;;;;;8.93;86.92;101050.97;4969787;28;20375;-73
2022/01/03 08:39:01;;;;;;;15.98;3.03;;;;;;;8.94;87.04;101050.00;4979697;28;20069;-76
2022/01/03 08:41:27;;;;;;;19.58;3.42;;;;;;;8.92;86.58;101035.66;4973693;28;20177;-78
2022/01/03 08:43:52;;;;;;;20.27;2.75;;;;;;;8.98;86.54;101045.25;4972134;28;20551;-74
2022/01/03 08:46:19;;;;;;;16.58;3.10;;;;;;;8.97;86.44;101032.66;4974520;28;20073;-76
2022/01/03 08:48:44;;;;;;;16.17;2.50;;;;;;;8.98;86.50;101038.97;4974502;28;20062;-74
2022/01/03 08:51:09;;;;;;;22.25;3.00;;;;;;;8.96;86.14;101043.63;4972253;28;20066;-75
2022/01/03 08:53:35;;;;;;;13.95;3.63;;;;;;;8.94;86.60;101051.84;4966209;28;20034;-77
2022/01/03 08:56:01;;;;;;;19.13;3.13;;;;;;;8.94;86.61;101063.56;4971543;28;20051;-76
2022/01/03 08:58:27;;;;;;;26.80;3.40;;;;;;;8.99;86.78;101068.72;4969373;28;20022;-72
2022/01/03 09:00:52;;;;;;;20.27;3.28;;;;;;;9.03;86.38;101066.69;4969183;28;20050;-78
2022/01/03 09:03:18;;;;;;;18.98;4.93;;;;;;;9.07;86.36;101062.81;4975415;28;20044;-78
2022/01/03 09:05:44;;;;;;;12.98;2.50;;;;;;;9.10;86.36;101073.50;4984257;28;20359;-76
2022/01/03 09:08:10;;;;;;;20.38;3.05;;;;;;;9.17;86.10;101080.25;4986832;28;20123;-75
2022/01/03 09:10:36;;;;;;;14.85;2.70;;;;;;;9.23;85.80;101077.16;4978560;28;20032;-75
2022/01/03 09:13:02;;;;;;;19.77;3.42;;;;;;;9.31;86.13;101065.81;4974628;28;20137;-76
2022/01/03 09:15:27;;;;;;;18.30;2.47;;;;;;;9.36;85.69;101067.25;4987830;28;20109;-76
2022/01/03 09:17:53;;;;;;;13.73;2.85;;;;;;;9.44;85.55;101072.22;4982876;28;20053;-79
2022/01/03 09:20:18;;;;;;;19.02;2.75;;;;;;;9.43;84.73;101059.63;4988183;28;20030;-73
2022/01/03 09:22:47;;;;;;;13.32;2.85;;;;;;;9.43;84.81;101060.47;4983217;28;20076;-78
2022/01/03 09:30:35;;;;;;;11.23;2.40;;;;;;;9.49;84.80;101052.91;4979020;28;20044;-77
2022/01/03 09:33:01;;;;;;;23.23;3.22;;;;;;;9.52;85.07;101052.72;4984379;28;20045;-76
2022/01/03 09:35:26;;;;;;;16.98;3.10;;;;;;;9.55;84.52;101047.94;4988861;28;20557;-76
2022/01/03 09:37:52;;;;;;;15.27;3.20;;;;;;;9.53;83.92;101033.59;4980336;28;20339;-76
2022/01/03 09:40:18;;;;;;;14.98;3.15;;;;;;;9.55;84.38;101030.78;4984744;28;20029;-75
2022/01/03 09:42:48;;;;;;;25.15;3.25;;;;;;;9.56;84.51;101037.94;4984089;28;20030;-76
2022/01/03 09:45:14;;;;;;;12.90;2.88;;;;;;;9.56;83.77;101029.78;4984132;28;20050;-76
2022/01/03 09:47:42;;;;;;;20.92;3.33;;;;;;;9.54;83.92;101035.34;4979761;28;20026;-76
2022/01/03 09:50:09;;;;;;;12.00;2.70;;;;;;;9.60;84.09;101042.19;4987050;28;20072;-76
2022/01/03 09:52:36;;;;;;;16.58;3.60;;;;;;;9.63;83.71;101047.44;4983044;28;20027;-77
2022/01/03 09:55:02;;;;;;;22.67;3.35;;;;;;;9.68;83.51;101045.31;4984149;28;20034;-77
2022/01/03 09:57:30;;;;;;;24.85;3.67;;;;;;;9.74;83.90;101038.59;4975080;28;20546;-75
2022/01/03 09:59:58;;;;;;;20.45;3.00;;;;;;;9.76;83.76;101042.97;4977807;28;20046;-76
2022/01/03 10:02:23;;;;;;;18.95;2.92;;;;;;;9.81;83.87;101031.78;4981657;28;20276;-77
2022/01/03 10:04:48;;;;;;;23.75;3.67;;;;;;;9.85;83.47;101038.75;4983820;28;20383;-74
2022/01/03 10:07:14;;;;;;;16.73;3.80;;;;;;;9.86;83.65;101035.94;4979564;28;20018;-76
2022/01/03 10:09:41;;;;;;;17.83;3.72;;;;;;;9.86;82.87;101032.34;4983233;28;20388;-76
2022/01/03 10:12:10;;;;;;;14.68;3.67;;;;;;;9.85;83.38;101030.63;4976618;28;20034;-74
2022/01/03 10:14:35;;;;;;;17.30;3.72;;;;;;;9.85;83.02;101028.75;4977892;28;20511;-78
2022/01/03 10:17:01;;;;;;;18.98;3.50;;;;;;;9.87;83.37;101034.97;4977198;28;20031;-74
2022/01/03 10:19:26;;;;;;;14.00;3.35;;;;;;;9.93;82.65;101036.38;4986849;28;20061;-74
2022/01/03 10:21:52;;;;;;;18.00;3.88;;;;;;;9.99;83.40;101026.97;4979931;28;20030;-76
2022/01/03 10:24:29;;;;;;;14.32;2.50;;;;;;;10.04;82.89;101033.84;4986144;28;20030;-76
2022/01/03 10:26:55;;;;;;;18.02;3.03;;;;;;;10.09;82.28;101037.13;4987027;28;20077;-76
2022/01/03 10:29:25;;;;;;;13.95;3.30;;;;;;;10.11;83.25;101037.88;4978970;28;20506;-76
2022/01/03 10:31:54;;;;;;;13.30;3.08;;;;;;;10.15;82.09;101036.69;4985538;28;20113;-75
2022/01/03 10:34:22;;;;;;;18.92;3.33;;;;;;;10.15;81.98;101022.22;4979389;28;20026;-75
2022/01/03 10:36:48;;;;;;;16.63;3.53;;;;;;;10.14;82.97;101023.22;4979116;28;20030;-76
2022/01/03 10:39:24;;;;;;;16.45;3.58;;;;;;;10.12;82.21;101023.31;4978173;28;20038;-73
2022/01/03 10:41:53;;;;;;;12.65;2.80;;;;;;;10.07;82.32;101002.84;4982348;28;20015;-75
2022/01/03 10:44:31;;;;;;;18.35;4.68;;;;;;;10.12;82.31;101011.59;4975008;28;20038;-76
2022/01/03 10:46:56;;;;;;;14.65;3.10;;;;;;;10.11;82.31;101002.53;4972046;28;20038;-73
2022/01/03 10:49:24;;;;;;;23.60;4.47;;;;;;;10.12;81.93;101009.72;4981122;28;20034;-77
2022/01/03 10:51:50;;;;;;;17.23;3.80;;;;;;;10.11;81.99;100997.09;4984806;28;21076;-76
2022/01/03 10:54:18;;;;;;;17.98;3.75;;;;;;;10.12;82.60;100987.13;4984350;28;20026;-76
2022/01/03 10:56:50;;;;;;;18.25;3.20;;;;;;;10.12;81.74;100988.00;4986355;28;20063;-76
2022/01/03 10:59:25;;;;;;;19.15;3.65;;;;;;;10.13;81.71;100987.00;4980438;28;20034;-79
2022/01/03 11:01:56;;;;;;;12.20;2.30;;;;;;;10.14;81.86;100974.28;4977613;28;20045;-75
2022/01/03 11:04:39;;;;;;;23.60;4.22;;;;;;;10.15;81.76;100979.59;4985385;28;20375;-76
2022/01/03 11:10:43;;;;;;;16.30;3.05;;;;;;;10.17;81.14;100971.38;4983220;28;20490;-76
2022/01/03 11:13:21;;;;;;;15.52;2.67;;;;;;;10.13;81.88;100970.69;4980952;28;20193;-74
2022/01/03 11:15:54;;;;;;;17.67;3.05;;;;;;;10.17;81.53;100971.38;4982271;28;20482;-76
2022/01/03 11:18:27;;;;;;;18.92;3.35;;;;;;;10.20;81.54;100963.84;4983428;28;20033;-78
2022/01/03 11:21:13;;;;;;;12.32;3.03;;;;;;;10.26;81.63;100958.97;4982921;28;20120;-74
2022/01/03 11:23:40;;;;;;;14.38;3.00;;;;;;;10.25;81.46;100960.84;4983204;28;20022;-76
2022/01/03 11:26:13;;;;;;;13.90;3.20;;;;;;;10.23;81.88;100958.19;4976129;28;20113;-76
2022/01/03 11:28:40;;;;;;;19.13;3.42;;;;;;;10.26;81.13;100950.81;4971314;28;20430;-76
2022/01/03 11:31:06;;;;;;;19.38;4.15;;;;;;;10.29;81.60;100956.94;4984676;28;20030;-76
2022/01/03 11:33:34;;;;;;;22.15;3.28;;;;;;;10.37;81.43;100954.56;4985976;28;20410;-79
2022/01/03 11:36:01;;;;;;;18.33;3.28;;;;;;;10.40;80.88;100946.19;4988088;28;20417;-76
2022/01/03 11:38:30;;;;;;;21.05;2.90;;;;;;;10.38;80.72;100952.69;4982165;28;20686;-73
2022/01/03 11:40:58;;;;;;;15.93;3.35;;;;;;;10.33;81.01;100944.00;4987120;28;20050;-75